Oslo Venture — VRNT9 — position and weather

sailwx.info

Track history (hours):
 
Tides and Currents Weather Stations Pressure Air Temp Water Temp Dewpoint Dewpoint Depression Visibility Wind Speed Wind Dir Waves Ship Positions

Oslo Venture

Last reported at 2017-Oct-18 17:39 UTC. Time now 2017-Oct-19 14:57 UTC.
Position N 27°40' W 014°01'.

Length 200 m; draft 10.4 m.

Type: Cargo ship. MMSI: 477476200.

Date/timePositionNaut miles runAvg speedWind from/ knotsBaromVisibWave heightAir tempDewpointWater temp
2017-Oct-18 17:39N 27°40' W 014°01'411.8
2017-Oct-18 17:19N 27°43' W 013°58'411.7
2017-Oct-18 16:58N 27°46' W 013°55'611.7
2017-Oct-18 16:26N 27°51' W 013°51'511.7
2017-Oct-18 15:58N 27°55' W 013°47'911.7
2017-Oct-18 15:12N 28°02' W 013°41'211.7
2017-Oct-18 15:00N 28°04' W 013°39'2011.8
2017-Oct-18 13:18N 28°20' W 013°26'3811.6
2017-Oct-18 10:03N 28°51' W 013°01'111.6
2017-Oct-18 10:00N 28°51' W 013°01'811.8
2017-Oct-18 09:21N 28°58' W 012°55'711.9
2017-Oct-18 08:46N 29°03' W 012°51'4 9.6
2017-Oct-18 08:21N 29°06' W 012°48'3612.0
2017-Oct-18 05:22N 29°36' W 012°24'33312.0
2017-Oct-17 01:38N 34°02' W 008°30'17811.3
2017-Oct-16 09:52N 35°57' W 005°44'713.1
2017-Oct-16 09:21N 35°57' W 005°36'412.7
2017-Oct-16 09:00N 35°59' W 005°31'611.3
2017-Oct-16 08:30N 36°01' W 005°24'6 9.9
2017-Oct-16 07:57N 36°07' W 005°23'0 0.1
2017-Oct-16 04:35N 36°07' W 005°22'0 0.2
2017-Oct-16 04:23N 36°07' W 005°22'0 0.2
2017-Oct-16 03:59N 36°07' W 005°22'0 0.1
2017-Oct-16 03:26N 36°07' W 005°22'0 0.1
2017-Oct-16 02:41N 36°07' W 005°22'0 0.0
2017-Oct-16 01:44N 36°07' W 005°22'0 0.0
2017-Oct-16 01:20N 36°07' W 005°22'0 0.1
2017-Oct-16 00:56N 36°07' W 005°22'0 0.1
2017-Oct-16 00:22N 36°07' W 005°22'0 0.2
2017-Oct-16 00:01N 36°07' W 005°22'2 3.3
2017-Oct-15 23:31N 36°05' W 005°22'2 4.2
2017-Oct-15 23:01N 36°04' W 005°20'1 2.7
2017-Oct-15 22:31N 36°04' W 005°18'4 7.8
2017-Oct-15 22:01N 36°04' W 005°13'712.0
2017-Oct-15 21:26N 36°05' W 005°05'21511.7
2017-Oct-15 02:58N 36°31' W 000°39'612.1
2017-Oct-15 02:29N 36°32' W 000°32'712.2
2017-Oct-15 01:54N 36°33' W 000°23'512.2
2017-Oct-15 01:31N 36°34' W 000°18'1712.3
2017-Oct-15 00:07N 36°38' E 000°03'212.5
2017-Oct-15 00:00N 36°38' E 000°05'612.4
2017-Oct-14 23:31N 36°39' E 000°12'612.3
2017-Oct-14 23:00N 36°41' E 000°20'1012.3
2017-Oct-14 22:12N 36°43' E 000°32'812.2
2017-Oct-14 21:31N 36°45' E 000°42'012.7
2017-Oct-14 21:30N 36°45' E 000°42'612.5
2017-Oct-14 21:01N 36°45' E 000°50'612.7
2017-Oct-14 20:31N 36°47' E 000°58'712.7
2017-Oct-14 20:00N 36°48' E 001°06'612.5
2017-Oct-14 19:31N 36°50' E 001°13'612.4
2017-Oct-14 19:01N 36°51' E 001°21'612.3
2017-Oct-14 18:30N 36°52' E 001°28'612.4
2017-Oct-14 18:01N 36°53' E 001°36'612.2
2017-Oct-14 17:31N 36°55' E 001°43'612.1
2017-Oct-14 17:00N 36°56' E 001°51'611.8
2017-Oct-14 16:31N 36°57' E 001°58'612.0
2017-Oct-14 16:00N 36°59' E 002°05'612.2
2017-Oct-14 15:30N 36°60' E 002°13'612.2
2017-Oct-14 15:00N 37°01' E 002°20'612.0
2017-Oct-14 14:30N 37°02' E 002°28'612.1
2017-Oct-14 14:00N 37°03' E 002°35'712.2
2017-Oct-14 13:28N 37°05' E 002°43'5212.1
2017-Oct-14 09:09N 37°12' E 003°48'212.2
2017-Oct-14 09:00N 37°13' E 003°50'612.1
2017-Oct-14 08:29N 37°13' E 003°58'912.1
2017-Oct-14 07:46N 37°15' E 004°09'312.0
2017-Oct-14 07:30N 37°15' E 004°13'712.0
2017-Oct-14 06:58N 37°16' E 004°21'2512.3
2017-Oct-14 04:58N 37°19' E 004°52'44311.8
2017-Oct-12 15:29N 36°36' E 014°03'711.9
2017-Oct-12 14:55N 36°34' E 014°11'511.7
2017-Oct-12 14:30N 36°32' E 014°17'611.8
2017-Oct-12 14:00N 36°30' E 014°24'611.8
2017-Oct-12 13:30N 36°28' E 014°31'611.9
2017-Oct-12 12:59N 36°27' E 014°38'612.4
2017-Oct-12 12:28N 36°27' E 014°46'46111.3
2017-Oct-10 19:31N 37°43' E 024°17'013.0
2017-Oct-10 19:30N 37°44' E 024°17'812.8
2017-Oct-10 18:53N 37°49' E 024°25'613.2
2017-Oct-10 18:26N 37°52' E 024°30'  
Track history (hours):
 
Tides and Currents Weather Stations Pressure Air Temp Water Temp Dewpoint Dewpoint Depression Visibility Wind Speed Wind Dir Waves Ship Positions

Oslo Venture

Last reported at 2017-Oct-18 17:39 UTC. Time now 2017-Oct-19 14:57 UTC.
Position N 27°40' W 014°01'.

Length 200 m; draft 10.4 m.

Type: Cargo ship. MMSI: 477476200.

Date/timePositionNaut miles runAvg speedWind from/ knotsBaromVisibWave heightAir tempDewpointWater temp
2017-Oct-18 17:39N 27°40' W 014°01'411.8
2017-Oct-18 17:19N 27°43' W 013°58'411.7
2017-Oct-18 16:58N 27°46' W 013°55'611.7
2017-Oct-18 16:26N 27°51' W 013°51'511.7
2017-Oct-18 15:58N 27°55' W 013°47'911.7
2017-Oct-18 15:12N 28°02' W 013°41'211.7
2017-Oct-18 15:00N 28°04' W 013°39'2011.8
2017-Oct-18 13:18N 28°20' W 013°26'3811.6
2017-Oct-18 10:03N 28°51' W 013°01'111.6
2017-Oct-18 10:00N 28°51' W 013°01'811.8
2017-Oct-18 09:21N 28°58' W 012°55'711.9
2017-Oct-18 08:46N 29°03' W 012°51'4 9.6
2017-Oct-18 08:21N 29°06' W 012°48'3612.0
2017-Oct-18 05:22N 29°36' W 012°24'33312.0
2017-Oct-17 01:38N 34°02' W 008°30'17811.3
2017-Oct-16 09:52N 35°57' W 005°44'713.1
2017-Oct-16 09:21N 35°57' W 005°36'412.7
2017-Oct-16 09:00N 35°59' W 005°31'611.3
2017-Oct-16 08:30N 36°01' W 005°24'6 9.9
2017-Oct-16 07:57N 36°07' W 005°23'0 0.1
2017-Oct-16 04:35N 36°07' W 005°22'0 0.2
2017-Oct-16 04:23N 36°07' W 005°22'0 0.2
2017-Oct-16 03:59N 36°07' W 005°22'0 0.1
2017-Oct-16 03:26N 36°07' W 005°22'0 0.1
2017-Oct-16 02:41N 36°07' W 005°22'0 0.0
2017-Oct-16 01:44N 36°07' W 005°22'0 0.0
2017-Oct-16 01:20N 36°07' W 005°22'0 0.1
2017-Oct-16 00:56N 36°07' W 005°22'0 0.1
2017-Oct-16 00:22N 36°07' W 005°22'0 0.2
2017-Oct-16 00:01N 36°07' W 005°22'2 3.3
2017-Oct-15 23:31N 36°05' W 005°22'2 4.2
2017-Oct-15 23:01N 36°04' W 005°20'1 2.7
2017-Oct-15 22:31N 36°04' W 005°18'4 7.8
2017-Oct-15 22:01N 36°04' W 005°13'712.0
2017-Oct-15 21:26N 36°05' W 005°05'21511.7
2017-Oct-15 02:58N 36°31' W 000°39'612.1
2017-Oct-15 02:29N 36°32' W 000°32'712.2
2017-Oct-15 01:54N 36°33' W 000°23'512.2
2017-Oct-15 01:31N 36°34' W 000°18'1712.3
2017-Oct-15 00:07N 36°38' E 000°03'212.5
2017-Oct-15 00:00N 36°38' E 000°05'612.4
2017-Oct-14 23:31N 36°39' E 000°12'612.3
2017-Oct-14 23:00N 36°41' E 000°20'1012.3
2017-Oct-14 22:12N 36°43' E 000°32'812.2
2017-Oct-14 21:31N 36°45' E 000°42'012.7
2017-Oct-14 21:30N 36°45' E 000°42'612.5
2017-Oct-14 21:01N 36°45' E 000°50'612.7
2017-Oct-14 20:31N 36°47' E 000°58'712.7
2017-Oct-14 20:00N 36°48' E 001°06'612.5
2017-Oct-14 19:31N 36°50' E 001°13'612.4
2017-Oct-14 19:01N 36°51' E 001°21'612.3
2017-Oct-14 18:30N 36°52' E 001°28'612.4
2017-Oct-14 18:01N 36°53' E 001°36'612.2
2017-Oct-14 17:31N 36°55' E 001°43'612.1
2017-Oct-14 17:00N 36°56' E 001°51'611.8
2017-Oct-14 16:31N 36°57' E 001°58'612.0
2017-Oct-14 16:00N 36°59' E 002°05'612.2
2017-Oct-14 15:30N 36°60' E 002°13'612.2
2017-Oct-14 15:00N 37°01' E 002°20'612.0
2017-Oct-14 14:30N 37°02' E 002°28'612.1
2017-Oct-14 14:00N 37°03' E 002°35'712.2
2017-Oct-14 13:28N 37°05' E 002°43'5212.1
2017-Oct-14 09:09N 37°12' E 003°48'212.2
2017-Oct-14 09:00N 37°13' E 003°50'612.1
2017-Oct-14 08:29N 37°13' E 003°58'912.1
2017-Oct-14 07:46N 37°15' E 004°09'312.0
2017-Oct-14 07:30N 37°15' E 004°13'712.0
2017-Oct-14 06:58N 37°16' E 004°21'2512.3
2017-Oct-14 04:58N 37°19' E 004°52'44311.8
2017-Oct-12 15:29N 36°36' E 014°03'711.9
2017-Oct-12 14:55N 36°34' E 014°11'511.7
2017-Oct-12 14:30N 36°32' E 014°17'611.8
2017-Oct-12 14:00N 36°30' E 014°24'611.8
2017-Oct-12 13:30N 36°28' E 014°31'611.9
2017-Oct-12 12:59N 36°27' E 014°38'612.4
2017-Oct-12 12:28N 36°27' E 014°46'46111.3
2017-Oct-10 19:31N 37°43' E 024°17'013.0
2017-Oct-10 19:30N 37°44' E 024°17'812.8
2017-Oct-10 18:53N 37°49' E 024°25'613.2
2017-Oct-10 18:26N 37°52' E 024°30'  

Dump ship's entire track history